Time;durP1;ratioP1;P1;durP2;ratioP2;P2;SDS_P1;SDS_P2;PMS_P1;PMS_P2;Temp;Humidity;BMP_temperature;BMP_pressure;BME280_temperature;BME280_humidity;BME280_pressure;Samples;Min_cycle;Max_cycle;Signal;HPM_P1;HPM_P2
2023/04/22 00:02:26;;;;;;;19.25;14.48;;;12.80;99.90;;;;;;4933204;29;20408;-75
2023/04/22 00:04:57;;;;;;;20.58;14.18;;;12.70;99.90;;;;;;4931046;29;20072;-75
2023/04/22 00:07:24;;;;;;;20.67;14.25;;;12.70;99.90;;;;;;4917764;29;20123;-76
2023/04/22 00:09:52;;;;;;;20.60;13.57;;;12.60;99.90;;;;;;4934954;29;20067;-78
2023/04/22 00:12:25;;;;;;;19.67;13.57;;;12.40;99.90;;;;;;4935419;29;20047;-75
2023/04/22 00:14:55;;;;;;;19.88;14.02;;;12.50;99.90;;;;;;4900020;29;20056;-76
2023/04/22 00:17:25;;;;;;;24.08;14.75;;;12.60;99.90;;;;;;4916430;29;20091;-75
2023/04/22 00:19:53;;;;;;;20.98;13.48;;;12.40;99.90;;;;;;4904666;29;20048;-76
2023/04/22 00:22:20;;;;;;;19.45;13.77;;;12.40;99.90;;;;;;4926263;29;20044;-77
2023/04/22 00:24:47;;;;;;;19.63;13.10;;;12.30;99.90;;;;;;4924785;29;20479;-77
2023/04/22 00:27:18;;;;;;;18.13;12.68;;;12.30;99.90;;;;;;4921036;29;20036;-74
2023/04/22 00:29:48;;;;;;;17.58;12.65;;;12.30;99.90;;;;;;4884919;29;20127;-74
2023/04/22 00:32:21;;;;;;;16.27;12.65;;;12.30;99.90;;;;;;4903672;29;20492;-75
2023/04/22 00:34:49;;;;;;;18.20;12.75;;;12.20;99.90;;;;;;4935305;29;20491;-76
2023/04/22 00:37:20;;;;;;;19.05;12.90;;;12.20;99.90;;;;;;4900680;29;20167;-75
2023/04/22 00:39:48;;;;;;;18.85;13.13;;;12.30;99.90;;;;;;4935286;29;20047;-77
2023/04/22 00:42:19;;;;;;;;;;;12.30;99.90;;;;;;4900674;29;20062;-78
2023/04/22 00:44:47;;;;;;;16.88;12.18;;;12.20;99.90;;;;;;4934944;29;19923;-77
2023/04/22 00:47:15;;;;;;;17.15;12.85;;;12.10;99.90;;;;;;4945678;29;20047;-77
2023/04/22 00:49:43;;;;;;;17.90;13.07;;;11.80;99.90;;;;;;4928602;29;20110;-75
2023/04/22 00:52:10;;;;;;;15.35;12.35;;;11.60;99.90;;;;;;4901411;29;20079;-77
2023/04/22 00:54:38;;;;;;;17.30;13.45;;;11.60;99.90;;;;;;4925288;29;20047;-76
2023/04/22 00:57:08;;;;;;;15.82;12.45;;;11.60;99.90;;;;;;4915894;29;20040;-74
2023/04/22 00:59:36;;;;;;;18.27;12.70;;;11.70;99.90;;;;;;4882902;29;20491;-76
2023/04/22 01:02:18;;;;;;;17.85;12.88;;;11.70;99.90;;;;;;4932604;29;20046;-75
2023/04/22 01:04:49;;;;;;;22.00;12.80;;;11.80;99.90;;;;;;4901795;29;20543;-75
2023/04/22 01:07:20;;;;;;;17.98;13.02;;;12.00;99.90;;;;;;4898923;29;20052;-76
2023/04/22 01:09:50;;;;;;;18.45;13.63;;;11.80;99.90;;;;;;4929862;29;20460;-75
2023/04/22 01:12:40;;;;;;;18.30;13.63;;;11.80;99.90;;;;;;4904671;29;20040;-76
2023/04/22 01:15:11;;;;;;;16.35;12.40;;;11.70;99.90;;;;;;4920465;29;20047;-74
2023/04/22 01:17:38;;;;;;;;;;;11.60;99.90;;;;;;4902792;29;20048;-76
2023/04/22 01:20:08;;;;;;;22.20;13.15;;;11.50;99.90;;;;;;4915516;29;19994;-76
2023/04/22 01:22:41;;;;;;;18.80;13.77;;;11.80;99.90;;;;;;4935905;29;20063;-76
2023/04/22 01:25:10;;;;;;;21.00;13.52;;;11.80;99.90;;;;;;4934777;29;20048;-76
2023/04/22 01:27:39;;;;;;;19.35;13.55;;;11.70;99.90;;;;;;4934325;29;20443;-75
2023/04/22 01:30:08;;;;;;;17.20;13.68;;;11.80;99.90;;;;;;4933928;29;20055;-76
2023/04/22 01:32:35;;;;;;;22.60;14.05;;;11.80;99.90;;;;;;4934243;29;20448;-76
2023/04/22 01:35:09;;;;;;;21.83;14.45;;;11.80;99.90;;;;;;4933856;29;20051;-75
2023/04/22 01:37:39;;;;;;;23.50;13.90;;;11.90;99.90;;;;;;4894353;29;20052;-77
2023/04/22 01:40:08;;;;;;;21.63;14.52;;;11.90;99.90;;;;;;4922329;29;20067;-76
2023/04/22 01:42:36;;;;;;;18.83;12.95;;;11.80;99.90;;;;;;4914164;29;20051;-76
2023/04/22 01:45:07;;;;;;;20.92;13.27;;;12.00;99.90;;;;;;4923288;29;20118;-74
2023/04/22 01:47:34;;;;;;;19.05;13.70;;;12.00;99.90;;;;;;4901921;29;20052;-76
2023/04/22 01:50:01;;;;;;;18.65;13.48;;;12.10;99.90;;;;;;4926376;29;20072;-76
2023/04/22 01:52:49;;;;;;;15.40;12.50;;;12.10;99.90;;;;;;4902978;29;20139;-77
2023/04/22 01:55:16;;;;;;;22.80;13.38;;;12.00;99.90;;;;;;4926404;29;20040;-77
2023/04/22 01:57:44;;;;;;;29.75;13.85;;;12.10;99.90;;;;;;4926942;29;20123;-77
2023/04/22 02:00:11;;;;;;;17.33;13.40;;;12.00;99.90;;;;;;4931626;29;20040;-77
2023/04/22 02:02:44;;;;;;;15.40;12.02;;;12.10;99.90;;;;;;4922016;29;20054;-75
2023/04/22 02:05:14;;;;;;;20.75;13.10;;;12.10;99.90;;;;;;4898046;29;20497;-77
2023/04/22 02:07:41;;;;;;;17.60;12.55;;;12.10;99.90;;;;;;4923379;29;20051;-78
2023/04/22 02:10:10;;;;;;;17.00;12.13;;;12.10;99.90;;;;;;4926042;29;20064;-77
2023/04/22 02:12:37;;;;;;;17.40;13.57;;;12.10;99.90;;;;;;4916565;29;20062;-76
2023/04/22 02:15:05;;;;;;;16.65;11.75;;;12.00;99.90;;;;;;4933718;29;20087;-77
2023/04/22 02:17:33;;;;;;;17.48;11.75;;;11.90;99.90;;;;;;4920619;29;20048;-77
2023/04/22 02:20:01;;;;;;;22.90;12.77;;;11.70;99.90;;;;;;4923225;29;20052;-76
2023/04/22 02:22:28;;;;;;;19.17;12.48;;;11.70;99.90;;;;;;4920514;29;20531;-75
2023/04/22 02:24:56;;;;;;;23.13;12.82;;;11.60;99.90;;;;;;4915821;29;20091;-76
2023/04/22 02:27:28;;;;;;;18.50;13.23;;;11.50;99.90;;;;;;4916573;29;20499;-76
2023/04/22 02:30:02;;;;;;;17.88;11.35;;;11.50;99.90;;;;;;4899150;29;20052;-77
2023/04/22 02:32:30;;;;;;;18.30;12.30;;;11.40;99.90;;;;;;4916707;29;20079;-75
2023/04/22 02:34:59;;;;;;;18.27;11.30;;;11.40;99.90;;;;;;4885187;29;20056;-75
2023/04/22 02:37:27;;;;;;;20.00;12.63;;;11.40;99.90;;;;;;4897949;29;20048;-77
2023/04/22 02:39:54;;;;;;;19.38;11.90;;;11.50;99.90;;;;;;4929807;29;20066;-78
2023/04/22 02:42:21;;;;;;;15.73;11.63;;;11.60;99.90;;;;;;4932291;29;20142;-77
2023/04/22 02:44:48;;;;;;;15.98;11.55;;;11.60;99.90;;;;;;4936367;29;20051;-77
2023/04/22 02:47:16;;;;;;;17.67;11.20;;;11.40;99.90;;;;;;4935463;29;20123;-75
2023/04/22 02:49:43;;;;;;;14.63;10.00;;;11.50;99.90;;;;;;4936233;29;20122;-76
2023/04/22 02:52:10;;;;;;;16.27;10.77;;;11.50;99.90;;;;;;4935029;29;20063;-75
2023/04/22 02:54:38;;;;;;;18.05;10.52;;;11.50;99.90;;;;;;4936694;29;20488;-77
2023/04/22 02:57:05;;;;;;;15.88;10.20;;;11.60;99.90;;;;;;4935576;29;20503;-76
2023/04/22 02:59:35;;;;;;;14.98;10.13;;;11.40;99.90;;;;;;4936236;29;20051;-75
2023/04/22 03:02:05;;;;;;;14.70;9.95;;;11.40;99.90;;;;;;4901496;29;20527;-77
2023/04/22 03:04:33;;;;;;;13.32;9.52;;;11.50;99.90;;;;;;4912770;29;20079;-76
2023/04/22 03:07:00;;;;;;;15.30;11.48;;;11.50;99.90;;;;;;4936039;29;20039;-77
2023/04/22 03:09:27;;;;;;;15.15;9.93;;;11.50;99.90;;;;;;4936298;29;20048;-76
2023/04/22 03:11:55;;;;;;;15.27;10.48;;;11.60;99.90;;;;;;4919052;29;20513;-77
2023/04/22 03:14:22;;;;;;;12.50;10.10;;;11.60;99.90;;;;;;4936566;29;20062;-78
2023/04/22 03:16:49;;;;;;;16.95;10.35;;;11.40;99.90;;;;;;4936564;29;20040;-75
2023/04/22 03:19:19;;;;;;;23.45;10.52;;;11.40;99.90;;;;;;4937433;29;20449;-77
2023/04/22 03:21:46;;;;;;;12.10;9.80;;;11.30;99.90;;;;;;4945382;29;20063;-76
2023/04/22 03:24:16;;;;;;;12.15;8.93;;;11.10;99.90;;;;;;4936003;29;20046;-75
2023/04/22 03:26:48;;;;;;;19.58;9.52;;;11.20;99.90;;;;;;4900312;29;20452;-76
2023/04/22 03:29:16;;;;;;;13.68;9.80;;;11.30;99.90;;;;;;4903021;29;20058;-75
2023/04/22 03:31:44;;;;;;;12.82;9.18;;;11.30;99.90;;;;;;4900046;29;20044;-76
2023/04/22 03:34:11;;;;;;;12.07;8.02;;;11.20;99.90;;;;;;4934506;29;20050;-75
2023/04/22 03:36:38;;;;;;;11.10;8.48;;;11.20;99.90;;;;;;4935705;29;20043;-76
2023/04/22 03:39:11;;;;;;;12.38;8.18;;;11.00;99.90;;;;;;4936075;29;20051;-74
2023/04/22 03:41:41;;;;;;;17.75;8.32;;;10.90;99.90;;;;;;4900497;29;20050;-76
2023/04/22 03:44:09;;;;;;;11.18;9.10;;;11.00;99.90;;;;;;4932695;29;20123;-75
2023/04/22 03:46:36;;;;;;;14.68;8.43;;;10.90;99.90;;;;;;4935360;29;20043;-75
2023/04/22 03:49:04;;;;;;;12.20;9.48;;;11.00;99.90;;;;;;4935469;29;20514;-76
2023/04/22 03:51:32;;;;;;;13.00;9.00;;;11.00;99.90;;;;;;4935843;29;20051;-76
2023/04/22 03:53:59;;;;;;;10.95;8.77;;;11.00;99.90;;;;;;4935445;29;20048;-75
2023/04/22 03:56:26;;;;;;;17.98;8.32;;;11.10;99.90;;;;;;4924502;29;20500;-75
2023/04/22 03:58:53;;;;;;;17.50;9.02;;;11.20;99.90;;;;;;4921955;29;20043;-75
2023/04/22 04:01:22;;;;;;;13.25;9.02;;;11.30;99.90;;;;;;4924084;29;20480;-77
2023/04/22 04:03:49;;;;;;;11.52;7.88;;;11.30;99.90;;;;;;4935197;29;20657;-76
2023/04/22 04:06:17;;;;;;;16.17;8.25;;;11.40;99.90;;;;;;4922755;29;20044;-77
2023/04/22 04:08:45;;;;;;;10.27;7.88;;;11.30;99.90;;;;;;4916915;29;20048;-76
2023/04/22 04:11:12;;;;;;;12.68;8.45;;;11.30;99.90;;;;;;4918678;29;20054;-76
2023/04/22 04:13:39;;;;;;;11.27;8.38;;;11.40;99.90;;;;;;4928522;29;20223;-75
2023/04/22 04:16:06;;;;;;;12.25;8.40;;;11.30;99.90;;;;;;4917965;29;20044;-76
2023/04/22 04:18:36;;;;;;;13.40;8.70;;;11.30;99.90;;;;;;4918104;29;20620;-76
2023/04/22 04:21:04;;;;;;;11.57;9.00;;;11.40;99.90;;;;;;4910827;29;20474;-78
2023/04/22 04:23:32;;;;;;;15.25;8.90;;;11.50;99.90;;;;;;4916472;29;20117;-75
2023/04/22 04:26:04;;;;;;;14.25;9.43;;;11.50;99.90;;;;;;4903080;23;20488;-75
2023/04/22 04:28:33;;;;;;;11.90;8.65;;;11.70;99.90;;;;;;4902725;29;20044;-76
2023/04/22 04:31:04;;;;;;;13.73;8.45;;;11.60;99.90;;;;;;4922516;29;20501;-78
2023/04/22 04:33:31;;;;;;;14.35;8.80;;;11.80;99.90;;;;;;4935553;29;20388;-76
2023/04/22 04:35:59;;;;;;;10.02;8.40;;;11.80;99.90;;;;;;4918867;29;20060;-76
2023/04/22 04:38:26;;;;;;;15.60;9.23;;;11.80;99.90;;;;;;4927109;29;20062;-77
2023/04/22 04:40:54;;;;;;;18.55;9.52;;;11.80;99.90;;;;;;4899928;29;20059;-77
2023/04/22 04:43:24;;;;;;;14.15;8.55;;;11.80;99.90;;;;;;4916669;29;20074;-78
2023/04/22 04:46:10;;;;;;;14.13;10.00;;;11.90;99.90;;;;;;4968006;23;20055;-76
2023/04/22 04:48:56;;;;;;;14.70;10.05;;;11.90;99.90;;;;;;4898545;29;20138;-77
2023/04/22 04:51:23;;;;;;;15.88;10.05;;;11.90;99.90;;;;;;4984915;23;20391;-75
2023/04/22 04:53:51;;;;;;;15.18;10.02;;;11.90;99.90;;;;;;4919600;29;20036;-77
2023/04/22 04:56:18;;;;;;;14.45;9.20;;;11.90;99.90;;;;;;4925845;29;20047;-78
2023/04/22 04:58:45;;;;;;;14.25;9.00;;;11.90;99.90;;;;;;4930330;29;20354;-78
2023/04/22 05:01:21;;;;;;;13.82;10.15;;;12.00;99.90;;;;;;4916132;29;20156;-76
2023/04/22 05:03:54;;;;;;;13.18;9.20;;;12.00;99.90;;;;;;4905323;29;20051;-77
2023/04/22 05:06:22;;;;;;;17.92;10.20;;;12.10;99.90;;;;;;4921782;29;20040;-77
2023/04/22 05:08:49;;;;;;;14.50;9.90;;;12.20;99.90;;;;;;4915877;29;20048;-76
2023/04/22 05:11:17;;;;;;;14.07;9.45;;;12.30;99.90;;;;;;4886816;29;20055;-77
2023/04/22 05:13:44;;;;;;;11.93;9.38;;;12.30;99.90;;;;;;4934443;29;20600;-76
2023/04/22 05:16:12;;;;;;;16.02;9.70;;;12.20;99.90;;;;;;4918904;29;20392;-76
2023/04/22 05:18:39;;;;;;;15.23;9.50;;;12.10;99.90;;;;;;4926052;29;20047;-79
2023/04/22 05:21:06;;;;;;;11.38;8.93;;;12.20;99.90;;;;;;4937889;29;20074;-76
2023/04/22 05:23:39;;;;;;;12.98;10.02;;;12.30;99.90;;;;;;4926445;29;20052;-76
2023/04/22 05:26:11;;;;;;;14.90;10.85;;;12.40;99.90;;;;;;4903148;29;20106;-76
2023/04/22 05:28:42;;;;;;;12.15;9.55;;;12.50;99.90;;;;;;4921926;29;20036;-75
2023/04/22 05:31:12;;;;;;;14.43;10.65;;;12.30;99.90;;;;;;4903217;29;20056;-77
2023/04/22 05:33:40;;;;;;;16.40;10.10;;;12.30;99.90;;;;;;4916013;29;20420;-77
2023/04/22 05:36:13;;;;;;;18.48;10.90;;;12.40;99.90;;;;;;4919148;29;20044;-76
2023/04/22 05:38:45;;;;;;;17.20;11.23;;;12.50;99.90;;;;;;4903113;29;20403;-76
2023/04/22 05:41:12;;;;;;;17.10;10.20;;;12.70;99.90;;;;;;4920782;29;20067;-77
2023/04/22 05:43:40;;;;;;;17.77;11.18;;;12.80;99.90;;;;;;4934102;29;20048;-77
2023/04/22 05:46:07;;;;;;;16.35;11.55;;;13.00;99.90;;;;;;4933362;29;20500;-75
2023/04/22 05:48:34;;;;;;;19.63;11.30;;;13.00;99.90;;;;;;4933881;29;20044;-75
2023/04/22 05:51:02;;;;;;;20.10;12.07;;;12.90;99.90;;;;;;4926878;29;20127;-76
2023/04/22 05:53:29;;;;;;;23.55;12.13;;;12.70;99.90;;;;;;4914824;29;20059;-75
2023/04/22 05:55:57;;;;;;;19.25;11.55;;;12.80;99.90;;;;;;4915263;29;20048;-76
2023/04/22 05:58:24;;;;;;;19.55;11.82;;;13.10;99.90;;;;;;4914066;29;20509;-75
2023/04/22 06:00:51;;;;;;;20.95;11.93;;;13.20;99.90;;;;;;4912140;23;20372;-75
2023/04/22 06:03:21;;;;;;;18.88;11.63;;;13.20;99.90;;;;;;4914806;29;20127;-74
2023/04/22 06:05:56;;;;;;;22.63;13.10;;;13.20;99.90;;;;;;4908435;29;20060;-75
2023/04/22 06:08:24;;;;;;;25.27;12.15;;;13.30;99.90;;;;;;4915774;29;20036;-73
2023/04/22 06:10:52;;;;;;;25.83;12.10;;;13.40;99.90;;;;;;4921269;29;20052;-74
2023/04/22 06:13:22;;;;;;;19.30;12.50;;;13.50;99.90;;;;;;4900209;29;20456;-75
2023/04/22 06:15:50;;;;;;;17.38;10.93;;;13.60;99.90;;;;;;4926248;29;20054;-74
2023/04/22 06:18:17;;;;;;;19.13;12.93;;;13.60;99.90;;;;;;4881891;29;20053;-75
2023/04/22 06:20:45;;;;;;;20.67;13.00;;;13.70;99.90;;;;;;4916626;29;20111;-75
2023/04/22 06:23:12;;;;;;;23.58;12.35;;;13.80;99.90;;;;;;4921377;29;20400;-74
2023/04/22 06:25:39;;;;;;;23.70;12.35;;;13.70;99.90;;;;;;4921762;29;20075;-75
2023/04/22 06:28:06;;;;;;;25.40;13.77;;;13.90;99.90;;;;;;4921278;29;20036;-75
2023/04/22 06:30:33;;;;;;;22.08;12.43;;;14.00;99.90;;;;;;4922559;29;20050;-79
2023/04/22 06:33:01;;;;;;;19.45;12.07;;;14.10;99.90;;;;;;4922700;29;20050;-77
2023/04/22 06:35:30;;;;;;;20.00;12.23;;;14.00;99.90;;;;;;4890063;29;20103;-79
2023/04/22 06:37:58;;;;;;;20.77;11.40;;;13.90;99.90;;;;;;4916428;29;20043;-74
2023/04/22 06:40:28;;;;;;;29.17;16.08;;;14.00;99.90;;;;;;4922168;29;20535;-77
2023/04/22 06:42:55;;;;;;;147.23;89.43;;;14.30;99.90;;;;;;4891533;29;20044;-80
2023/04/22 06:45:23;;;;;;;26.92;16.02;;;14.60;99.90;;;;;;4909301;29;20452;-80
2023/04/22 06:47:59;;;;;;;58.40;35.00;;;14.80;99.90;;;;;;4922931;29;20046;-77
2023/04/22 06:50:30;;;;;;;53.22;34.65;;;15.20;99.90;;;;;;4879053;29;20048;-77
2023/04/22 06:53:00;;;;;;;52.10;34.50;;;15.40;99.90;;;;;;4896731;29;20048;-73
2023/04/22 06:55:30;;;;;;;22.25;14.25;;;15.60;99.90;;;;;;4876675;29;20067;-79
2023/04/22 06:58:00;;;;;;;18.45;10.27;;;15.80;99.90;;;;;;4889245;29;20049;-77
2023/04/22 07:00:28;;;;;;;17.20;9.23;;;15.80;99.90;;;;;;4869251;29;20067;-78
2023/04/22 07:03:05;;;;;;;17.13;10.02;;;15.60;99.90;;;;;;4908542;23;20060;-76
2023/04/22 07:05:47;;;;;;;22.17;9.68;;;15.40;99.90;;;;;;4913215;29;20047;-78
2023/04/22 07:08:19;;;;;;;15.25;8.90;;;15.60;99.90;;;;;;4945520;29;20038;-77
2023/04/22 07:10:53;;;;;;;15.18;9.27;;;15.80;99.90;;;;;;4912841;29;20086;-78
2023/04/22 07:13:25;;;;;;;15.38;7.65;;;16.00;99.60;;;;;;4931038;29;20114;-75
2023/04/22 07:15:56;;;;;;;14.38;6.85;;;16.00;99.20;;;;;;4910697;29;20039;-75
2023/04/22 07:18:24;;;;;;;15.35;5.82;;;15.80;97.10;;;;;;4921579;29;20106;-75
2023/04/22 07:20:56;;;;;;;10.20;5.45;;;15.70;97.00;;;;;;4928127;29;20051;-76
2023/04/22 07:23:28;;;;;;;9.15;5.10;;;15.60;96.80;;;;;;4928354;29;20106;-76
2023/04/22 07:25:55;;;;;;;10.02;5.10;;;15.40;96.80;;;;;;4905514;29;20054;-76
2023/04/22 07:28:28;;;;;;;8.60;4.80;;;15.30;97.50;;;;;;4926400;29;20044;-74
2023/04/22 07:30:55;;;;;;;8.48;4.85;;;15.40;97.10;;;;;;4908219;29;20047;-76
2023/04/22 07:33:22;;;;;;;14.68;5.50;;;15.30;97.30;;;;;;4912202;29;20555;-78
2023/04/22 07:35:50;;;;;;;11.88;5.43;;;15.40;97.30;;;;;;4926997;29;20408;-79
2023/04/22 07:38:18;;;;;;;11.25;5.53;;;15.60;96.50;;;;;;4920701;29;20090;-76
2023/04/22 07:40:45;;;;;;;11.32;5.32;;;15.60;96.90;;;;;;4940298;29;20423;-76
2023/04/22 07:43:13;;;;;;;11.60;5.95;;;15.50;96.30;;;;;;4944872;29;20035;-77
2023/04/22 07:45:40;;;;;;;10.32;5.40;;;15.60;96.10;;;;;;4914358;29;20090;-78
2023/04/22 07:48:08;;;;;;;7.60;5.97;;;15.60;95.80;;;;;;4910921;29;20527;-77
2023/04/22 07:50:46;;;;;;;12.35;5.30;;;15.60;95.50;;;;;;4902979;29;20047;-78
2023/04/22 07:53:16;;;;;;;10.32;4.85;;;15.70;95.20;;;;;;4891290;29;20428;-79
2023/04/22 07:55:48;;;;;;;8.73;5.15;;;15.40;95.40;;;;;;4892894;29;20503;-77
2023/04/22 07:58:21;;;;;;;14.88;8.60;;;15.40;95.80;;;;;;4892793;29;20071;-76
2023/04/22 08:00:54;;;;;;;14.65;9.10;;;15.70;96.50;;;;;;4996583;23;20048;-77
2023/04/22 08:03:22;;;;;;;8.02;5.65;;;15.60;96.30;;;;;;4926378;29;20044;-80
2023/04/22 08:05:50;;;;;;;9.13;5.40;;;15.20;97.80;;;;;;4923589;29;20047;-78
2023/04/22 08:08:17;;;;;;;8.85;6.10;;;15.00;98.50;;;;;;4942711;29;20047;-75
2023/04/22 08:10:45;;;;;;;10.40;6.22;;;14.90;99.80;;;;;;4927418;29;20375;-78
2023/04/22 08:13:18;;;;;;;;;;;14.90;99.90;;;;;;4912618;29;20077;-79
2023/04/22 08:15:50;;;;;;;9.00;6.00;;;15.00;99.90;;;;;;4908529;29;20048;-80
2023/04/22 08:22:45;;;;;;;10.52;6.55;;;15.10;99.90;;;;;;4915109;29;20059;-74
2023/04/22 08:25:19;;;;;;;9.35;6.35;;;15.00;99.90;;;;;;4911187;23;20399;-80
2023/04/22 08:27:47;;;;;;;14.77;8.40;;;14.90;99.90;;;;;;4909312;29;20755;-75
2023/04/22 08:30:20;;;;;;;29.42;18.85;;;14.90;99.90;;;;;;4908455;29;20425;-75
2023/04/22 08:32:47;;;;;;;34.33;20.50;;;15.10;99.90;;;;;;4890100;29;20127;-75
2023/04/22 08:35:18;;;;;;;22.67;15.13;;;14.90;99.90;;;;;;4893050;29;20044;-76
2023/04/22 08:37:48;;;;;;;10.93;6.50;;;14.80;99.90;;;;;;4921307;29;20071;-75
2023/04/22 08:40:18;;;;;;;8.50;6.03;;;14.90;99.90;;;;;;4924647;29;20043;-74
2023/04/22 08:42:47;;;;;;;9.35;5.65;;;15.00;99.90;;;;;;4888241;29;20052;-72
2023/04/22 08:45:14;;;;;;;11.25;6.15;;;14.80;99.90;;;;;;4909615;29;20052;-75
2023/04/22 08:47:42;;;;;;;7.72;5.70;;;14.80;99.90;;;;;;4921328;29;20044;-72
2023/04/22 08:50:10;;;;;;;8.70;6.10;;;15.00;99.90;;;;;;4892411;29;20131;-72
2023/04/22 08:52:43;;;;;;;7.95;5.97;;;15.20;99.90;;;;;;4905481;29;20060;-74
2023/04/22 08:55:10;;;;;;;8.55;6.18;;;15.20;99.90;;;;;;4919114;29;20039;-73
2023/04/22 08:57:41;;;;;;;11.65;5.85;;;15.40;99.90;;;;;;4902410;29;20040;-73
2023/04/22 09:00:12;;;;;;;11.60;6.03;;;15.40;99.90;;;;;;4903995;29;20051;-75
2023/04/22 09:02:47;;;;;;;11.15;7.00;;;15.30;99.50;;;;;;4903870;29;20049;-74
2023/04/22 09:05:19;;;;;;;12.43;6.50;;;15.40;99.90;;;;;;4891563;29;20494;-74
2023/04/22 09:07:48;;;;;;;9.52;6.32;;;15.50;98.90;;;;;;4888074;29;20052;-75
2023/04/22 09:10:16;;;;;;;8.60;5.22;;;15.70;98.10;;;;;;4845892;29;20110;-81
2023/04/22 09:12:46;;;;;;;9.45;5.82;;;15.70;97.20;;;;;;4865063;29;20065;-75
2023/04/22 09:15:16;;;;;;;9.45;5.57;;;15.90;96.50;;;;;;4851717;29;20557;-73
2023/04/22 09:17:44;;;;;;;9.77;5.53;;;16.20;96.80;;;;;;4862352;29;20061;-73
2023/04/22 09:20:11;;;;;;;9.52;5.70;;;16.40;94.50;;;;;;4861654;29;20068;-74
2023/04/22 09:22:44;;;;;;;7.53;5.28;;;16.60;95.60;;;;;;4864308;29;20454;-74
2023/04/22 09:25:19;;;;;;;7.63;5.22;;;16.80;94.90;;;;;;4838662;29;20054;-73
2023/04/22 09:27:50;;;;;;;8.77;5.53;;;17.10;92.30;;;;;;4848596;29;20143;-73
2023/04/22 09:30:38;;;;;;;7.28;4.43;;;17.20;91.90;;;;;;4831431;29;20056;-73
2023/04/22 09:33:07;;;;;;;7.32;5.53;;;17.20;91.20;;;;;;4845167;29;20160;-74
2023/04/22 09:35:37;;;;;;;30.90;6.30;;;17.60;90.30;;;;;;4831273;29;20041;-72
2023/04/22 09:38:06;;;;;;;15.98;5.97;;;18.00;89.60;;;;;;4901782;23;20146;-74
2023/04/22 09:40:35;;;;;;;25.20;7.07;;;18.40;88.40;;;;;;4901993;29;20139;-71
2023/04/22 09:43:31;;;;;;;8.80;4.68;;;18.70;87.40;;;;;;4887995;29;20084;-71
2023/04/22 09:45:59;;;;;;;52.72;33.70;;;18.40;85.90;;;;;;4903851;29;20169;-73
2023/04/22 09:48:27;;;;;;;35.10;18.35;;;18.50;86.40;;;;;;4896572;29;20488;-75
2023/04/22 09:50:54;;;;;;;19.30;13.70;;;18.70;87.00;;;;;;4901935;29;20395;-74
2023/04/22 09:53:24;;;;;;;11.65;7.53;;;19.00;86.40;;;;;;4901818;29;20048;-76
2023/04/22 09:55:53;;;;;;;11.15;5.80;;;19.30;84.20;;;;;;4887117;29;20513;-75
2023/04/22 09:58:32;;;;;;;7.93;5.20;;;19.20;80.40;;;;;;4900937;29;20051;-78
2023/04/22 10:00:59;;;;;;;9.57;5.00;;;18.70;80.10;;;;;;4887555;29;20044;-75
2023/04/22 10:03:26;;;;;;;6.50;4.32;;;18.40;81.40;;;;;;4901321;29;20113;-75
2023/04/22 10:05:56;;;;;;;8.30;4.80;;;18.60;77.90;;;;;;4906332;29;20801;-78
2023/04/22 10:08:27;;;;;;;9.05;4.50;;;19.10;78.90;;;;;;4886175;29;20088;-78
2023/04/22 10:10:54;;;;;;;;;;;19.40;75.40;;;;;;4872270;29;20051;-79
2023/04/22 10:13:21;;;;;;;41.10;29.38;;;19.20;79.40;;;;;;4901426;29;19957;-74
2023/04/22 10:15:59;;;;;;;42.85;30.98;;;18.90;79.20;;;;;;4877569;29;20049;-75
2023/04/22 10:18:38;;;;;;;48.15;37.67;;;19.70;73.40;;;;;;4874750;29;20052;-82
2023/04/22 10:21:06;;;;;;;12.38;6.93;;;20.30;73.00;;;;;;4900716;29;20083;-75
2023/04/22 10:23:36;;;;;;;10.35;4.57;;;20.30;73.50;;;;;;4887243;29;20100;-75
2023/04/22 10:26:04;;;;;;;8.45;4.75;;;19.80;71.50;;;;;;4870035;29;20055;-73
2023/04/22 10:28:31;;;;;;;43.45;25.77;;;19.10;77.40;;;;;;4869735;29;20125;-75
2023/04/22 10:31:04;;;;;;;26.55;16.83;;;19.60;76.00;;;;;;4901963;29;20054;-75
2023/04/22 10:33:35;;;;;;;58.60;40.22;;;19.90;74.90;;;;;;4900884;29;20049;-75
2023/04/22 10:36:16;;;;;;;47.35;34.22;;;20.30;73.20;;;;;;4893966;29;20064;-81
2023/04/22 10:38:53;;;;;;;27.77;17.02;;;20.60;70.80;;;;;;4902487;29;20049;-75
2023/04/22 10:41:34;;;;;;;12.57;5.72;;;20.20;70.20;;;;;;4891219;29;20146;-72
2023/04/22 10:44:09;;;;;;;8.38;5.13;;;19.10;72.90;;;;;;4883945;29;20040;-73
2023/04/22 10:46:41;;;;;;;7.60;4.75;;;19.30;71.50;;;;;;4886261;29;20143;-75
2023/04/22 10:49:24;;;;;;;6.80;4.50;;;19.50;73.60;;;;;;4874666;29;20065;-73
2023/04/22 10:51:54;;;;;;;7.85;4.40;;;19.50;72.60;;;;;;4869903;29;20048;-71
2023/04/22 10:57:02;;;;;;;7.63;4.88;;;20.20;69.90;;;;;;4887589;29;20076;-78
2023/04/22 10:59:31;;;;;;;7.35;4.43;;;19.90;70.30;;;;;;4889609;29;20508;-75
2023/04/22 11:02:02;;;;;;;9.55;4.80;;;20.10;69.10;;;;;;4908408;29;20411;-85
2023/04/22 11:04:30;;;;;;;7.72;5.07;;;20.30;67.40;;;;;;4906404;29;20088;-75
2023/04/22 11:07:21;;;;;;;6.40;4.53;;;20.00;67.70;;;;;;4880297;29;20670;-74
2023/04/22 11:09:52;;;;;;;8.50;4.97;;;20.10;69.00;;;;;;4888887;29;20071;-78
2023/04/22 11:12:37;;;;;;;10.23;4.45;;;20.70;69.50;;;;;;4910091;29;20048;-74
2023/04/22 11:15:13;;;;;;;10.35;4.50;;;21.00;66.40;;;;;;4892343;29;20051;-77
2023/04/22 11:17:51;;;;;;;10.23;4.90;;;21.10;66.30;;;;;;4890455;29;20051;-75
2023/04/22 11:20:21;;;;;;;8.02;5.25;;;21.50;67.10;;;;;;4890686;29;20048;-82
2023/04/22 11:22:51;;;;;;;8.48;5.00;;;21.80;65.10;;;;;;4910235;29;21471;-79
2023/04/22 11:25:20;;;;;;;10.52;4.57;;;22.20;65.20;;;;;;4888111;29;20036;-82
2023/04/22 11:27:47;;;;;;;9.32;5.03;;;21.80;62.70;;;;;;4910307;29;20047;-77
2023/04/22 11:30:21;;;;;;;8.43;4.72;;;21.80;62.70;;;;;;4907153;29;20056;-84
2023/04/22 11:32:54;;;;;;;7.45;4.50;;;21.80;61.90;;;;;;4890505;29;20056;-80
2023/04/22 11:35:27;;;;;;;8.32;5.50;;;22.00;60.90;;;;;;4907853;29;20047;-83
2023/04/22 11:37:59;;;;;;;10.57;5.35;;;22.10;62.40;;;;;;4901978;29;20523;-76
2023/04/22 11:40:30;;;;;;;9.80;5.07;;;22.20;62.20;;;;;;4887404;29;20180;-84
2023/04/22 11:43:04;;;;;;;8.73;4.88;;;22.30;61.30;;;;;;4905509;29;20051;-77
2023/04/22 11:45:37;;;;;;;10.10;5.57;;;22.60;64.60;;;;;;4906265;29;20036;-81
2023/04/22 11:48:07;;;;;;;10.38;4.78;;;22.80;61.90;;;;;;4872343;29;20067;-76
2023/04/22 11:50:40;;;;;;;8.43;4.88;;;23.00;59.50;;;;;;4901236;29;20044;-75
2023/04/22 11:53:22;;;;;;;12.38;6.53;;;23.10;60.70;;;;;;4904831;29;20048;-73
2023/04/22 11:55:56;;;;;;;9.10;5.30;;;23.40;63.30;;;;;;4884245;29;20048;-72
2023/04/22 11:58:26;;;;;;;30.60;22.00;;;22.90;58.80;;;;;;4900591;29;20388;-77
2023/04/22 12:00:56;;;;;;;35.40;24.10;;;22.60;58.60;;;;;;4888790;29;20560;-74
2023/04/22 12:03:26;;;;;;;9.38;6.45;;;22.30;60.30;;;;;;4903136;29;20052;-74
2023/04/22 12:06:04;;;;;;;14.82;7.65;;;22.40;59.50;;;;;;4888010;29;20135;-74
2023/04/22 12:08:43;;;;;;;8.80;5.80;;;22.80;61.20;;;;;;4717508;23;6109410;-72
2023/04/22 12:11:11;;;;;;;10.63;5.75;;;23.20;59.60;;;;;;4892049;29;20107;-73
2023/04/22 12:13:46;;;;;;;8.10;4.93;;;22.80;58.60;;;;;;4924914;29;20377;-75
2023/04/22 12:16:19;;;;;;;10.05;5.10;;;23.30;58.40;;;;;;4890806;29;20048;-75
2023/04/22 12:18:54;;;;;;;14.27;6.03;;;22.90;58.40;;;;;;4889266;29;20138;-73
2023/04/22 12:21:27;;;;;;;24.10;8.68;;;23.90;60.40;;;;;;4904147;29;20098;-72
2023/04/22 12:24:11;;;;;;;16.88;6.85;;;24.50;60.20;;;;;;4904417;29;20045;-74
2023/04/22 12:26:41;;;;;;;10.07;4.90;;;24.80;56.90;;;;;;4882530;29;20056;-79
2023/04/22 12:29:09;;;;;;;11.95;5.55;;;24.20;56.10;;;;;;4921107;29;20036;-76
2023/04/22 12:31:52;;;;;;;10.50;5.28;;;23.50;58.20;;;;;;4918965;29;20033;-78
2023/04/22 12:34:36;;;;;;;13.65;6.32;;;22.70;59.80;;;;;;4869918;29;20058;-79
2023/04/22 12:38:32;;;;;;;;;;;;;;;;;;;;;
2023/04/22 12:45:55;;;;;;;9.32;4.85;;;23.90;56.60;;;;;;4893497;29;20037;-78
2023/04/22 12:49:39;;;;;;;;;;;;;;;;;;;;;
2023/04/22 12:52:42;;;;;;;8.43;5.30;;;24.30;55.20;;;;;;4893963;29;20052;-77
2023/04/22 12:55:57;;;;;;;8.10;5.00;;;24.20;54.30;;;;;;4871184;29;20266;-81
2023/04/22 13:01:48;;;;;;;7.53;4.97;;;24.60;55.60;;;;;;4694212;27;20056;-78
2023/04/22 13:07:40;;;;;;;9.32;4.63;;;25.00;52.80;;;;;;4922347;29;20064;-76
2023/04/22 13:10:23;;;;;;;9.15;4.95;;;24.70;52.40;;;;;;4920659;29;20071;-82
2023/04/22 13:14:03;;;;;;;9.13;5.20;;;25.20;52.50;;;;;;4890585;29;20047;-80
2023/04/22 13:17:37;;;;;;;7.97;4.22;;;28.50;50.40;;;;;;4923651;29;20054;-81
2023/04/22 13:20:31;;;;;;;9.75;4.78;;;30.50;49.00;;;;;;4914835;29;20127;-77